Ever Delight — 3FCB8 — position and weather

sailwx.info

Track history (hours):
 
Tides and Currents Weather Stations Pressure Air Temp Water Temp Dewpoint Dewpoint Depression Visibility Wind Speed Wind Dir Waves Ship Positions

Ever Delight

Last reported at 2015-Jun-29 13:22 UTC. Time now 2015-Jul-06 04:56 UTC.
Position N 32°41' W 079°44'.

Type: Cargo ship. MMSI: 351936000.

Date/timePositionNaut miles runAvg speedWind from/ knotsBaromVisibWave heightAir tempDewpointWater temp
2015-Jun-29 13:22N 32°41' W 079°44'1212.0
2015-Jun-29 12:22N 32°48' W 079°55'58 2.9
2015-Jun-28 16:07N 31°58' W 080°29'917.1
2015-Jun-28 15:34N 31°57' W 080°40'1212.3
2015-Jun-28 14:33N 32°02' W 080°54'9 9.3
2015-Jun-28 13:33N 32°05' W 081°04'5 5.2
2015-Jun-28 12:34N 32°08' W 081°09'0 0.0
2015-Jun-28 11:33N 32°08' W 081°09'0 0.0
2015-Jun-28 10:33N 32°08' W 081°09'0 0.0
2015-Jun-28 09:33N 32°08' W 081°09'0 0.0
2015-Jun-28 08:32N 32°08' W 081°09'0 0.0
2015-Jun-28 07:32N 32°08' W 081°09'0 0.0
2015-Jun-28 06:32N 32°08' W 081°09'0 0.0
2015-Jun-28 05:33N 32°08' W 081°09'0 0.0
2015-Jun-28 04:33N 32°08' W 081°09'0 0.0
2015-Jun-28 03:32N 32°08' W 081°09'0 0.0
2015-Jun-28 02:32N 32°08' W 081°09'0 0.0
2015-Jun-28 01:32N 32°08' W 081°09'0 0.0
2015-Jun-28 00:32N 32°08' W 081°09'0 0.0
2015-Jun-27 23:32N 32°08' W 081°09'0 0.0
2015-Jun-27 22:32N 32°08' W 081°09'0 0.0
2015-Jun-27 21:32N 32°08' W 081°09'0 0.0
2015-Jun-27 20:32N 32°08' W 081°09'0 0.0
2015-Jun-27 19:32N 32°08' W 081°09'0 0.0
2015-Jun-27 18:33N 32°08' W 081°09'0 0.0
2015-Jun-27 17:32N 32°08' W 081°09'0 0.0
2015-Jun-27 16:32N 32°08' W 081°09'0 0.0
2015-Jun-27 15:34N 32°08' W 081°09'3 3.0
2015-Jun-27 14:34N 32°06' W 081°06'6 6.0
2015-Jun-27 13:34N 32°05' W 080°59'1010.1
2015-Jun-27 12:33N 32°01' W 080°49'1110.7
2015-Jun-27 11:33N 31°56' W 080°38'  
Track history (hours):
 
Tides and Currents Weather Stations Pressure Air Temp Water Temp Dewpoint Dewpoint Depression Visibility Wind Speed Wind Dir Waves Ship Positions

Ever Delight

Last reported at 2015-Jun-29 13:22 UTC. Time now 2015-Jul-06 04:56 UTC.
Position N 32°41' W 079°44'.

Type: Cargo ship. MMSI: 351936000.

Date/timePositionNaut miles runAvg speedWind from/ knotsBaromVisibWave heightAir tempDewpointWater temp
2015-Jun-29 13:22N 32°41' W 079°44'1212.0
2015-Jun-29 12:22N 32°48' W 079°55'58 2.9
2015-Jun-28 16:07N 31°58' W 080°29'917.1
2015-Jun-28 15:34N 31°57' W 080°40'1212.3
2015-Jun-28 14:33N 32°02' W 080°54'9 9.3
2015-Jun-28 13:33N 32°05' W 081°04'5 5.2
2015-Jun-28 12:34N 32°08' W 081°09'0 0.0
2015-Jun-28 11:33N 32°08' W 081°09'0 0.0
2015-Jun-28 10:33N 32°08' W 081°09'0 0.0
2015-Jun-28 09:33N 32°08' W 081°09'0 0.0
2015-Jun-28 08:32N 32°08' W 081°09'0 0.0
2015-Jun-28 07:32N 32°08' W 081°09'0 0.0
2015-Jun-28 06:32N 32°08' W 081°09'0 0.0
2015-Jun-28 05:33N 32°08' W 081°09'0 0.0
2015-Jun-28 04:33N 32°08' W 081°09'0 0.0
2015-Jun-28 03:32N 32°08' W 081°09'0 0.0
2015-Jun-28 02:32N 32°08' W 081°09'0 0.0
2015-Jun-28 01:32N 32°08' W 081°09'0 0.0
2015-Jun-28 00:32N 32°08' W 081°09'0 0.0
2015-Jun-27 23:32N 32°08' W 081°09'0 0.0
2015-Jun-27 22:32N 32°08' W 081°09'0 0.0
2015-Jun-27 21:32N 32°08' W 081°09'0 0.0
2015-Jun-27 20:32N 32°08' W 081°09'0 0.0
2015-Jun-27 19:32N 32°08' W 081°09'0 0.0
2015-Jun-27 18:33N 32°08' W 081°09'0 0.0
2015-Jun-27 17:32N 32°08' W 081°09'0 0.0
2015-Jun-27 16:32N 32°08' W 081°09'0 0.0
2015-Jun-27 15:34N 32°08' W 081°09'3 3.0
2015-Jun-27 14:34N 32°06' W 081°06'6 6.0
2015-Jun-27 13:34N 32°05' W 080°59'1010.1
2015-Jun-27 12:33N 32°01' W 080°49'1110.7
2015-Jun-27 11:33N 31°56' W 080°38'  

Dump ship's entire track history